createdAt,value
2017-02-13T00:00:03.624Z,20.59
2017-02-13T00:01:03.653Z,20.64
2017-02-13T00:02:03.938Z,20.61
2017-02-13T00:03:04.114Z,20.61
2017-02-13T00:04:03.759Z,20.62
2017-02-13T00:05:04.156Z,20.58
2017-02-13T00:06:03.792Z,20.64
2017-02-13T00:07:03.661Z,20.62
2017-02-13T00:08:03.878Z,20.64
2017-02-13T00:09:03.854Z,20.59
2017-02-13T00:10:03.505Z,20.58
2017-02-13T00:11:03.924Z,20.62
2017-02-13T00:12:04.474Z,20.66
2017-02-13T00:13:04.365Z,20.59
2017-02-13T00:14:04.009Z,20.54
2017-02-13T00:15:04.411Z,20.61
2017-02-13T00:16:04.465Z,20.55
2017-02-13T00:17:04.724Z,20.52
2017-02-13T00:18:04.504Z,20.58
2017-02-13T00:19:04.129Z,20.52
2017-02-13T00:20:04.144Z,20.61
2017-02-13T00:21:04.180Z,20.52
2017-02-13T00:22:04.455Z,20.54
2017-02-13T00:23:04.645Z,20.48
2017-02-13T00:24:04.665Z,20.54
2017-02-13T00:25:03.899Z,20.5
2017-02-13T00:26:04.711Z,20.43
2017-02-13T00:27:04.993Z,20.55
2017-02-13T00:28:04.381Z,20.43
2017-02-13T00:29:04.781Z,20.52
2017-02-13T00:30:04.413Z,20.54
2017-02-13T00:31:04.443Z,20.5
2017-02-13T00:32:04.479Z,20.47
2017-02-13T00:33:04.742Z,20.5
2017-02-13T00:34:04.917Z,20.47
2017-02-13T00:35:04.549Z,20.51
2017-02-13T00:36:04.172Z,20.48
2017-02-13T00:37:04.994Z,20.48
2017-02-13T00:38:04.492Z,20.48
2017-02-13T00:39:04.648Z,20.41
2017-02-13T00:40:04.685Z,20.41
2017-02-13T00:41:04.711Z,20.39
2017-02-13T00:42:04.755Z,20.35
2017-02-13T00:43:05.663Z,20.36
2017-02-13T00:44:05.204Z,20.38
2017-02-13T00:45:04.817Z,20.33
2017-02-13T00:46:05.246Z,20.33
2017-02-13T00:47:04.878Z,20.33
2017-02-13T00:48:04.903Z,20.36
2017-02-13T00:49:04.523Z,20.39
2017-02-13T00:50:04.957Z,20.35
2017-02-13T00:51:04.971Z,20.39
2017-02-13T00:52:05.418Z,20.38
2017-02-13T00:53:05.023Z,20.32
2017-02-13T00:54:05.468Z,20.41
2017-02-13T00:55:05.068Z,20.36
2017-02-13T00:56:05.492Z,20.36
2017-02-13T00:57:05.121Z,20.29
2017-02-13T00:58:05.569Z,20.31
2017-02-13T00:59:05.187Z,20.35
2017-02-13T01:00:05.203Z,20.29
2017-02-13T01:01:05.649Z,20.32
2017-02-13T01:02:05.282Z,20.28
2017-02-13T01:03:05.297Z,20.32
2017-02-13T01:04:05.569Z,20.26
2017-02-13T01:05:05.739Z,20.31
2017-02-13T01:06:05.765Z,20.26
2017-02-13T01:07:05.781Z,20.29
2017-02-13T01:08:05.442Z,20.28
2017-02-13T01:09:06.096Z,20.31
2017-02-13T01:10:05.892Z,20.33
2017-02-13T01:11:05.496Z,20.26
2017-02-13T01:12:05.917Z,20.28
2017-02-13T01:13:05.542Z,20.33
2017-02-13T01:14:05.830Z,20.36
2017-02-13T01:15:05.595Z,20.29
2017-02-13T01:16:05.635Z,20.23
2017-02-13T01:17:05.680Z,20.28
2017-02-13T01:18:06.085Z,20.31
2017-02-13T01:19:05.962Z,20.26
2017-02-13T01:20:05.348Z,20.28
2017-02-13T01:21:05.764Z,20.31
2017-02-13T01:22:06.188Z,20.29
2017-02-13T01:23:05.805Z,20.28
2017-02-13T01:24:06.485Z,20.18
2017-02-13T01:25:06.255Z,20.18
2017-02-13T01:26:05.884Z,20.29
2017-02-13T01:27:05.527Z,20.26
2017-02-13T01:28:06.345Z,20.26
2017-02-13T01:29:06.617Z,20.2
2017-02-13T01:30:05.990Z,20.23
2017-02-13T01:31:06.047Z,20.26
2017-02-13T01:32:06.440Z,20.26
2017-02-13T01:33:05.676Z,20.23
2017-02-13T01:34:06.349Z,20.21
2017-02-13T01:35:06.538Z,20.29
2017-02-13T01:36:06.166Z,20.2
2017-02-13T01:37:06.578Z,20.16
2017-02-13T01:38:06.595Z,20.26
2017-02-13T01:39:06.737Z,20.18
2017-02-13T01:40:06.297Z,20.18
2017-02-13T01:41:06.295Z,20.2
2017-02-13T01:42:05.918Z,20.14
2017-02-13T01:43:06.728Z,20.28
2017-02-13T01:44:07.001Z,20.16
2017-02-13T01:45:06.777Z,20.17
2017-02-13T01:46:06.810Z,20.14
2017-02-13T01:47:06.830Z,20.17
2017-02-13T01:48:06.863Z,20.21
2017-02-13T01:49:07.129Z,20.21
2017-02-13T01:50:06.112Z,20.21
2017-02-13T01:51:06.549Z,20.24
2017-02-13T01:52:06.606Z,20.26
2017-02-13T01:53:06.995Z,20.14
2017-02-13T01:54:06.875Z,20.13
2017-02-13T01:55:07.044Z,20.21
2017-02-13T01:56:07.089Z,20.2
2017-02-13T01:57:07.106Z,20.2
2017-02-13T01:58:06.745Z,20.17
2017-02-13T01:59:07.151Z,20.18
2017-02-13T02:00:06.818Z,20.17
2017-02-13T02:01:07.208Z,20.17
2017-02-13T02:02:07.250Z,20.14
2017-02-13T02:03:06.870Z,20.14
2017-02-13T02:04:07.302Z,20.1
2017-02-13T02:05:06.911Z,20.16
2017-02-13T02:06:07.351Z,20.16
2017-02-13T02:07:07.361Z,20.16
2017-02-13T02:08:07.014Z,20.1
2017-02-13T02:09:07.415Z,20.14
2017-02-13T02:10:07.440Z,20.1
2017-02-13T02:11:07.072Z,20.13
2017-02-13T02:12:07.489Z,20.11
2017-02-13T02:13:07.517Z,20.13
2017-02-13T02:14:07.167Z,20.06
2017-02-13T02:15:07.019Z,20.02
2017-02-13T02:16:07.604Z,20.03
2017-02-13T02:17:07.217Z,20.02
2017-02-13T02:18:07.647Z,20.05
2017-02-13T02:19:07.676Z,20.01
2017-02-13T02:20:07.155Z,20.01
2017-02-13T02:21:07.343Z,20.06
2017-02-13T02:22:07.392Z,20.05
2017-02-13T02:23:07.785Z,20.02
2017-02-13T02:24:07.014Z,20.05
2017-02-13T02:25:07.686Z,20.01
2017-02-13T02:26:07.851Z,20.02
2017-02-13T02:27:07.891Z,19.98
2017-02-13T02:28:07.929Z,20.01
2017-02-13T02:29:07.537Z,20.08
2017-02-13T02:30:08.463Z,20.03
2017-02-13T02:31:07.597Z,20.08
2017-02-13T02:32:08.011Z,20.08
2017-02-13T02:33:07.257Z,20.08
2017-02-13T02:34:07.704Z,20.03
2017-02-13T02:35:08.336Z,20.02
2017-02-13T02:36:08.133Z,20.02
2017-02-13T02:37:08.146Z,20.02
2017-02-13T02:38:07.387Z,20.01
2017-02-13T02:39:07.792Z,19.94
2017-02-13T02:40:08.476Z,19.98
2017-02-13T02:41:07.866Z,20.03
2017-02-13T02:42:07.875Z,20.06
2017-02-13T02:43:07.904Z,20.02
2017-02-13T02:44:07.932Z,20.03
2017-02-13T02:45:08.469Z,19.99
2017-02-13T02:46:08.402Z,20.01
2017-02-13T02:47:08.415Z,20.01
2017-02-13T02:48:08.048Z,20.05
2017-02-13T02:49:08.060Z,20.05
2017-02-13T02:50:08.115Z,19.91
2017-02-13T02:51:08.514Z,19.94
2017-02-13T02:52:07.741Z,20.02
2017-02-13T02:53:08.566Z,19.95
2017-02-13T02:54:07.817Z,20.02
2017-02-13T02:55:08.625Z,19.96
2017-02-13T02:56:08.669Z,19.99
2017-02-13T02:57:08.680Z,19.98
2017-02-13T02:58:08.302Z,19.96
2017-02-13T02:59:08.323Z,19.99
2017-02-13T03:00:08.759Z,19.94
2017-02-13T03:01:08.389Z,19.96
2017-02-13T03:02:08.823Z,19.99
2017-02-13T03:03:08.434Z,19.96
2017-02-13T03:04:08.086Z,19.98
2017-02-13T03:05:08.473Z,20.01
2017-02-13T03:06:09.152Z,19.98
2017-02-13T03:07:08.535Z,19.96
2017-02-13T03:08:08.982Z,20.01
2017-02-13T03:09:08.991Z,20.03
2017-02-13T03:10:08.631Z,19.99
2017-02-13T03:11:08.502Z,19.98
2017-02-13T03:12:09.081Z,19.96
2017-02-13T03:13:09.090Z,19.96
2017-02-13T03:14:08.718Z,19.92
2017-02-13T03:15:09.151Z,19.98
2017-02-13T03:16:09.676Z,19.95
2017-02-13T03:17:09.185Z,19.98
2017-02-13T03:18:08.821Z,19.98
2017-02-13T03:19:08.469Z,19.98
2017-02-13T03:20:08.475Z,19.94
2017-02-13T03:21:08.924Z,19.98
2017-02-13T03:22:09.340Z,19.94
2017-02-13T03:23:08.549Z,19.96
2017-02-13T03:24:08.582Z,20.02
2017-02-13T03:25:09.407Z,19.94
2017-02-13T03:26:09.438Z,20.02
2017-02-13T03:27:09.444Z,19.95
2017-02-13T03:28:09.485Z,19.98
2017-02-13T03:29:08.724Z,19.94
2017-02-13T03:30:09.131Z,19.86
2017-02-13T03:31:09.555Z,19.91
2017-02-13T03:32:09.472Z,19.95
2017-02-13T03:33:09.604Z,19.95
2017-02-13T03:34:09.266Z,19.91
2017-02-13T03:35:09.662Z,19.99
2017-02-13T03:36:09.703Z,19.96
2017-02-13T03:37:09.567Z,19.87
2017-02-13T03:38:08.968Z,19.87
2017-02-13T03:39:09.373Z,19.87
2017-02-13T03:40:09.406Z,19.84
2017-02-13T03:41:09.411Z,19.84
2017-02-13T03:42:09.559Z,19.91
2017-02-13T03:43:09.873Z,19.87
2017-02-13T03:44:09.529Z,19.87
2017-02-13T03:45:09.537Z,19.84
2017-02-13T03:46:09.542Z,19.86
2017-02-13T03:47:09.845Z,19.83
2017-02-13T03:48:09.600Z,19.87
2017-02-13T03:49:09.636Z,19.84
2017-02-13T03:50:09.665Z,19.88
2017-02-13T03:51:09.287Z,19.84
2017-02-13T03:52:10.345Z,19.84
2017-02-13T03:53:09.727Z,19.92
2017-02-13T03:54:09.760Z,19.83
2017-02-13T03:55:10.177Z,19.87
2017-02-13T03:56:09.804Z,19.84
2017-02-13T03:57:10.326Z,19.84
2017-02-13T03:58:09.462Z,19.86
2017-02-13T03:59:09.895Z,19.87
2017-02-13T04:00:09.520Z,19.86
2017-02-13T04:01:10.179Z,19.87
2017-02-13T04:02:09.586Z,19.83
2017-02-13T04:03:09.987Z,19.84
2017-02-13T04:04:10.407Z,19.87
2017-02-13T04:05:10.447Z,19.8
2017-02-13T04:06:10.487Z,19.87
2017-02-13T04:07:10.117Z,19.8
2017-02-13T04:08:10.177Z,19.81
2017-02-13T04:09:10.551Z,19.77
2017-02-13T04:10:10.576Z,19.83
2017-02-13T04:11:09.809Z,19.8
2017-02-13T04:12:10.246Z,19.84
2017-02-13T04:13:10.678Z,19.74
2017-02-13T04:14:10.679Z,19.8
2017-02-13T04:15:10.705Z,19.78
2017-02-13T04:16:10.732Z,19.76
2017-02-13T04:17:10.756Z,19.76
2017-02-13T04:18:10.393Z,19.74
2017-02-13T04:19:10.818Z,19.8
2017-02-13T04:20:10.850Z,19.76
2017-02-13T04:21:10.456Z,19.83
2017-02-13T04:22:10.900Z,19.76
2017-02-13T04:23:10.773Z,19.81
2017-02-13T04:24:10.538Z,19.76
2017-02-13T04:25:10.967Z,19.76
2017-02-13T04:26:10.595Z,19.76
2017-02-13T04:27:10.219Z,19.8
2017-02-13T04:28:10.921Z,19.8
2017-02-13T04:29:10.690Z,19.77
2017-02-13T04:30:10.297Z,19.76
2017-02-13T04:31:10.724Z,19.69
2017-02-13T04:32:11.168Z,19.77
2017-02-13T04:33:11.045Z,19.74
2017-02-13T04:34:11.209Z,19.69
2017-02-13T04:35:11.235Z,19.76
2017-02-13T04:36:10.846Z,19.74
2017-02-13T04:37:10.471Z,19.73
2017-02-13T04:38:11.163Z,19.68
2017-02-13T04:39:10.938Z,19.74
2017-02-13T04:40:10.574Z,19.66
2017-02-13T04:41:10.573Z,19.71
2017-02-13T04:42:10.632Z,19.74
2017-02-13T04:43:11.304Z,19.66
2017-02-13T04:44:11.472Z,19.73
2017-02-13T04:45:11.481Z,19.71
2017-02-13T04:46:11.126Z,19.68
2017-02-13T04:47:11.161Z,19.65
2017-02-13T04:48:11.844Z,19.74
2017-02-13T04:49:10.804Z,19.68
2017-02-13T04:50:11.224Z,19.66
2017-02-13T04:51:11.634Z,19.74
2017-02-13T04:52:11.259Z,19.66
2017-02-13T04:53:11.550Z,19.66
2017-02-13T04:54:11.723Z,19.66
2017-02-13T04:55:11.743Z,19.62
2017-02-13T04:56:11.389Z,19.66
2017-02-13T04:57:11.397Z,19.69
2017-02-13T04:58:11.671Z,19.63
2017-02-13T04:59:11.843Z,19.61
2017-02-13T05:00:11.484Z,19.66
2017-02-13T05:01:11.905Z,19.61
2017-02-13T05:02:11.921Z,19.65
2017-02-13T05:03:11.170Z,19.65
2017-02-13T05:04:11.576Z,19.62
2017-02-13T05:05:12.009Z,19.58
2017-02-13T05:06:11.636Z,19.62
2017-02-13T05:07:11.661Z,19.65
2017-02-13T05:08:11.709Z,19.61
2017-02-13T05:09:11.720Z,19.68
2017-02-13T05:10:11.754Z,19.63
2017-02-13T05:11:11.755Z,19.61
2017-02-13T05:12:11.416Z,19.65
2017-02-13T05:13:12.216Z,19.61
2017-02-13T05:14:11.857Z,19.63
2017-02-13T05:15:11.865Z,19.63
2017-02-13T05:16:12.307Z,19.62
2017-02-13T05:17:11.516Z,19.65
2017-02-13T05:18:11.961Z,19.59
2017-02-13T05:19:11.970Z,19.59
2017-02-13T05:20:11.623Z,19.59
2017-02-13T05:21:11.627Z,19.63
2017-02-13T05:22:12.454Z,19.68
2017-02-13T05:23:12.070Z,19.65
2017-02-13T05:24:12.509Z,19.74
2017-02-13T05:25:11.724Z,19.63
2017-02-13T05:26:12.535Z,19.68
2017-02-13T05:27:12.193Z,19.78
2017-02-13T05:28:12.614Z,19.65
2017-02-13T05:29:12.884Z,19.78
2017-02-13T05:30:12.246Z,19.84
2017-02-13T05:31:12.666Z,19.76
2017-02-13T05:32:12.696Z,19.83
2017-02-13T05:33:12.732Z,19.83
2017-02-13T05:34:12.208Z,19.86
2017-02-13T05:35:12.381Z,19.86
2017-02-13T05:36:12.405Z,19.86
2017-02-13T05:37:12.437Z,19.98
2017-02-13T05:38:12.853Z,19.91
2017-02-13T05:39:12.736Z,19.95
2017-02-13T05:40:12.929Z,19.96
2017-02-13T05:41:12.158Z,19.95
2017-02-13T05:42:12.558Z,20.01
2017-02-13T05:43:12.591Z,19.95
2017-02-13T05:44:12.717Z,19.95
2017-02-13T05:45:12.637Z,20.11
2017-02-13T05:46:13.052Z,20.08
2017-02-13T05:47:12.300Z,20.05
2017-02-13T05:48:13.136Z,20.08
2017-02-13T05:49:12.602Z,20.17
2017-02-13T05:50:12.394Z,20.14
2017-02-13T05:51:12.804Z,20.17
2017-02-13T05:52:13.214Z,20.18
2017-02-13T05:53:13.240Z,20.26
2017-02-13T05:54:13.758Z,20.2
2017-02-13T05:55:13.940Z,20.18
2017-02-13T05:56:12.917Z,20.35
2017-02-13T05:57:12.937Z,20.31
2017-02-13T05:58:12.971Z,20.33
2017-02-13T05:59:12.598Z,20.31
2017-02-13T06:00:12.635Z,20.35
2017-02-13T06:01:13.065Z,20.36
2017-02-13T06:02:13.073Z,20.38
2017-02-13T06:03:13.107Z,20.42
2017-02-13T06:04:13.531Z,20.41
2017-02-13T06:05:13.160Z,20.51
2017-02-13T06:06:13.588Z,20.5
2017-02-13T06:07:13.600Z,20.5
2017-02-13T06:08:13.234Z,20.54
2017-02-13T06:09:13.267Z,20.48
2017-02-13T06:10:13.574Z,20.55
2017-02-13T06:11:13.328Z,20.58
2017-02-13T06:12:13.357Z,20.7
2017-02-13T06:13:12.970Z,20.58
2017-02-13T06:14:12.995Z,20.62
2017-02-13T06:15:14.316Z,20.62
2017-02-13T06:16:13.459Z,20.61
2017-02-13T06:17:13.869Z,20.66
2017-02-13T06:18:13.512Z,20.64
2017-02-13T06:19:13.534Z,20.62
2017-02-13T06:20:14.207Z,20.73
2017-02-13T06:21:13.570Z,20.64
2017-02-13T06:22:13.600Z,20.7
2017-02-13T06:23:13.641Z,20.59
2017-02-13T06:24:13.654Z,20.62
2017-02-13T06:25:13.544Z,20.72
2017-02-13T06:26:14.120Z,20.62
2017-02-13T06:27:14.129Z,20.69
2017-02-13T06:28:14.154Z,20.69
2017-02-13T06:29:13.774Z,20.8
2017-02-13T06:30:14.062Z,20.79
2017-02-13T06:31:13.835Z,20.7
2017-02-13T06:32:13.462Z,20.7
2017-02-13T06:33:13.900Z,20.67
2017-02-13T06:34:13.537Z,20.82
2017-02-13T06:35:13.807Z,20.82
2017-02-13T06:36:13.999Z,20.79
2017-02-13T06:37:14.416Z,20.82
2017-02-13T06:38:14.429Z,20.82
2017-02-13T06:39:14.067Z,20.87
2017-02-13T06:40:14.084Z,20.88
2017-02-13T06:41:14.100Z,20.89
2017-02-13T06:42:14.527Z,20.91
2017-02-13T06:43:14.152Z,20.91
2017-02-13T06:44:14.181Z,20.89
2017-02-13T06:45:14.614Z,20.85
2017-02-13T06:46:14.239Z,20.88
2017-02-13T06:47:13.865Z,20.88
2017-02-13T06:48:14.700Z,20.89
2017-02-13T06:49:14.317Z,20.89
2017-02-13T06:50:14.337Z,20.88
2017-02-13T06:51:14.754Z,20.91
2017-02-13T06:52:14.786Z,20.88
2017-02-13T06:53:14.020Z,20.91
2017-02-13T06:54:14.444Z,20.88
2017-02-13T06:55:14.866Z,20.89
2017-02-13T06:56:14.753Z,20.85
2017-02-13T06:57:14.519Z,20.85
2017-02-13T06:58:14.951Z,20.85
2017-02-13T06:59:14.192Z,20.87
2017-02-13T07:00:14.597Z,20.87
2017-02-13T07:01:14.907Z,20.89
2017-02-13T07:02:14.666Z,20.76
2017-02-13T07:03:14.695Z,20.76
2017-02-13T07:04:14.714Z,20.77
2017-02-13T07:05:14.344Z,20.77
2017-02-13T07:06:15.003Z,20.79
2017-02-13T07:07:15.205Z,20.79
2017-02-13T07:08:14.810Z,20.72
2017-02-13T07:09:14.463Z,20.77
2017-02-13T07:10:14.851Z,20.8
2017-02-13T07:11:15.146Z,20.8
2017-02-13T07:12:14.938Z,20.74
2017-02-13T07:13:14.955Z,20.69
2017-02-13T07:14:15.357Z,20.73
2017-02-13T07:15:15.000Z,20.74
2017-02-13T07:16:15.663Z,20.67
2017-02-13T07:17:15.045Z,20.74
2017-02-13T07:18:15.066Z,20.73
2017-02-13T07:19:14.718Z,20.79
2017-02-13T07:20:15.527Z,20.79
2017-02-13T07:21:15.804Z,20.69
2017-02-13T07:22:14.773Z,20.69
2017-02-13T07:23:15.602Z,20.74
2017-02-13T07:24:15.228Z,20.73
2017-02-13T07:25:15.664Z,20.7
2017-02-13T07:26:15.536Z,20.69
2017-02-13T07:27:15.714Z,20.76
2017-02-13T07:28:15.753Z,20.66
2017-02-13T07:29:15.766Z,20.7
2017-02-13T07:30:15.400Z,20.8
2017-02-13T07:31:16.323Z,20.7
2017-02-13T07:32:15.832Z,20.76
2017-02-13T07:33:15.074Z,20.76
2017-02-13T07:34:15.894Z,20.72
2017-02-13T07:35:15.519Z,20.61
2017-02-13T07:36:15.949Z,20.66
2017-02-13T07:37:15.972Z,20.64
2017-02-13T07:38:15.597Z,20.64
2017-02-13T07:39:16.025Z,20.59
2017-02-13T07:40:16.050Z,20.67
2017-02-13T07:41:15.674Z,20.66
2017-02-13T07:42:16.363Z,20.73
2017-02-13T07:43:15.738Z,20.67
2017-02-13T07:44:15.769Z,20.72
2017-02-13T07:45:15.786Z,20.61
2017-02-13T07:46:16.239Z,20.69
2017-02-13T07:47:16.096Z,20.61
2017-02-13T07:48:15.864Z,20.67
2017-02-13T07:49:16.301Z,20.69
2017-02-13T07:50:15.525Z,20.61
2017-02-13T07:51:15.943Z,20.54
2017-02-13T07:52:16.476Z,20.58
2017-02-13T07:53:15.996Z,20.62
2017-02-13T07:54:16.029Z,20.59
2017-02-13T07:55:15.654Z,20.58
2017-02-13T07:56:16.084Z,20.61
2017-02-13T07:57:16.759Z,20.59
2017-02-13T07:58:16.142Z,20.51
2017-02-13T07:59:15.757Z,20.51
2017-02-13T08:00:16.185Z,20.54
2017-02-13T08:01:16.206Z,20.51
2017-02-13T08:02:16.538Z,20.58
2017-02-13T08:03:15.871Z,20.52
2017-02-13T08:04:16.708Z,20.48
2017-02-13T08:05:15.913Z,20.57
2017-02-13T08:06:16.746Z,20.55
2017-02-13T08:07:16.635Z,20.47
2017-02-13T08:08:16.789Z,20.51
2017-02-13T08:09:16.836Z,20.5
2017-02-13T08:10:16.865Z,20.52
2017-02-13T08:11:16.482Z,20.54
2017-02-13T08:12:16.121Z,20.41
2017-02-13T08:13:17.175Z,20.5
2017-02-13T08:14:16.552Z,20.41
2017-02-13T08:15:16.573Z,20.51
2017-02-13T08:16:16.996Z,20.43
2017-02-13T08:17:16.653Z,20.43
2017-02-13T08:18:16.906Z,20.38
2017-02-13T08:19:17.087Z,20.36
2017-02-13T08:20:16.712Z,20.39
2017-02-13T08:21:16.751Z,20.39
2017-02-13T08:22:16.769Z,20.42
2017-02-13T08:23:17.048Z,20.41
2017-02-13T08:24:16.836Z,20.41
2017-02-13T08:25:16.503Z,20.42
2017-02-13T08:26:16.865Z,20.38
2017-02-13T08:27:17.293Z,20.38
2017-02-13T08:28:17.163Z,20.35
2017-02-13T08:29:16.963Z,20.33
2017-02-13T08:30:16.579Z,20.35
2017-02-13T08:31:17.392Z,20.36
2017-02-13T08:32:17.424Z,20.38
2017-02-13T08:33:17.302Z,20.38
2017-02-13T08:34:16.680Z,20.39
2017-02-13T08:35:17.103Z,20.36
2017-02-13T08:36:16.728Z,20.39
2017-02-13T08:37:17.179Z,20.38
2017-02-13T08:38:17.833Z,20.35
2017-02-13T08:39:16.809Z,20.33
2017-02-13T08:40:17.623Z,20.31
2017-02-13T08:41:17.663Z,20.38
2017-02-13T08:42:17.301Z,20.36
2017-02-13T08:43:17.568Z,20.36
2017-02-13T08:44:16.942Z,20.39
2017-02-13T08:45:16.970Z,20.32
2017-02-13T08:46:17.404Z,20.32
2017-02-13T08:47:17.416Z,20.36
2017-02-13T08:48:18.093Z,20.29
2017-02-13T08:49:17.473Z,20.24
2017-02-13T08:50:17.902Z,20.26
2017-02-13T08:51:17.923Z,20.29
2017-02-13T08:52:17.945Z,20.31
2017-02-13T08:53:18.220Z,20.32
2017-02-13T08:54:17.217Z,20.24
2017-02-13T08:55:18.034Z,20.28
2017-02-13T08:56:17.649Z,20.32
2017-02-13T08:57:17.706Z,20.32
2017-02-13T08:58:17.952Z,20.28
2017-02-13T08:59:17.740Z,20.29
2017-02-13T09:00:18.185Z,20.29
2017-02-13T09:01:17.783Z,20.29
2017-02-13T09:02:17.818Z,20.32
2017-02-13T09:03:18.495Z,20.31
2017-02-13T09:04:17.869Z,20.33
2017-02-13T09:05:17.493Z,20.31
2017-02-13T09:06:18.312Z,20.31
2017-02-13T09:07:18.336Z,20.31
2017-02-13T09:08:18.631Z,20.26
2017-02-13T09:09:18.383Z,20.28
2017-02-13T09:10:18.042Z,20.31
2017-02-13T09:11:18.050Z,20.28
2017-02-13T09:12:18.475Z,20.32
2017-02-13T09:13:18.107Z,20.29
2017-02-13T09:14:18.143Z,20.23
2017-02-13T09:15:18.557Z,20.32
2017-02-13T09:16:18.186Z,20.28
2017-02-13T09:17:18.596Z,20.28
2017-02-13T09:18:18.239Z,20.17
2017-02-13T09:19:18.679Z,20.24
2017-02-13T09:20:17.888Z,20.29
2017-02-13T09:21:18.320Z,20.26
2017-02-13T09:22:17.961Z,20.24
2017-02-13T09:23:18.379Z,20.29
2017-02-13T09:24:18.395Z,20.17
2017-02-13T09:25:18.829Z,20.26
2017-02-13T09:26:18.870Z,20.29
2017-02-13T09:27:18.866Z,20.23
2017-02-13T09:28:18.494Z,20.29
2017-02-13T09:29:19.194Z,20.24
2017-02-13T09:30:18.567Z,20.29
2017-02-13T09:31:18.580Z,20.33
2017-02-13T09:32:18.598Z,20.31
2017-02-13T09:33:18.634Z,20.28
2017-02-13T09:34:18.906Z,20.26
2017-02-13T09:35:18.686Z,20.18
2017-02-13T09:36:19.110Z,20.26
2017-02-13T09:37:18.733Z,20.28
2017-02-13T09:38:18.754Z,20.26
2017-02-13T09:39:19.047Z,20.29
2017-02-13T09:40:18.812Z,20.18
2017-02-13T09:41:18.851Z,20.13
2017-02-13T09:42:18.867Z,20.24
2017-02-13T09:43:18.897Z,20.29
2017-02-13T09:44:19.166Z,20.29
2017-02-13T09:45:18.943Z,20.23
2017-02-13T09:46:19.359Z,20.24
2017-02-13T09:47:19.399Z,20.24
2017-02-13T09:48:19.425Z,20.21
2017-02-13T09:49:19.299Z,20.2
2017-02-13T09:50:18.687Z,20.28
2017-02-13T09:51:19.123Z,20.24
2017-02-13T09:52:19.128Z,20.31
2017-02-13T09:53:19.169Z,20.26
2017-02-13T09:54:19.868Z,20.26
2017-02-13T09:55:19.608Z,20.28
2017-02-13T09:56:19.243Z,20.24
2017-02-13T09:57:19.657Z,20.26
2017-02-13T09:58:19.280Z,20.32
2017-02-13T09:59:19.572Z,20.32
2017-02-13T10:00:19.329Z,20.31
2017-02-13T10:01:19.357Z,20.32
2017-02-13T10:02:19.387Z,20.29
2017-02-13T10:03:19.815Z,20.26
2017-02-13T10:04:19.688Z,20.32
2017-02-13T10:05:19.861Z,20.31
2017-02-13T10:06:19.491Z,20.31
2017-02-13T10:07:19.518Z,20.39
2017-02-13T10:08:19.550Z,20.23
2017-02-13T10:09:20.235Z,20.29
2017-02-13T10:10:20.020Z,20.31
2017-02-13T10:11:19.623Z,20.31
2017-02-13T10:12:19.266Z,20.31
2017-02-13T10:13:20.079Z,20.33
2017-02-13T10:14:20.371Z,20.24
2017-02-13T10:15:20.124Z,20.28
2017-02-13T10:16:19.769Z,20.35
2017-02-13T10:17:20.181Z,20.28
2017-02-13T10:18:19.811Z,20.29
2017-02-13T10:19:19.857Z,20.33
2017-02-13T10:20:19.467Z,20.29
2017-02-13T10:21:19.885Z,20.26
2017-02-13T10:22:20.314Z,20.31
2017-02-13T10:23:19.943Z,20.33
2017-02-13T10:24:20.363Z,20.36
2017-02-13T10:25:19.599Z,20.38
2017-02-13T10:26:20.021Z,20.31
2017-02-13T10:27:20.053Z,20.31
2017-02-13T10:28:20.073Z,20.31
2017-02-13T10:29:19.698Z,20.35
2017-02-13T10:30:20.411Z,20.31
2017-02-13T10:31:20.155Z,20.33
2017-02-13T10:32:20.578Z,20.31
2017-02-13T10:33:20.598Z,20.33
2017-02-13T10:34:20.237Z,20.38
2017-02-13T10:35:20.119Z,20.42
2017-02-13T10:36:19.895Z,20.33
2017-02-13T10:37:20.712Z,20.39
2017-02-13T10:38:20.773Z,20.32
2017-02-13T10:39:20.754Z,20.28
2017-02-13T10:40:20.638Z,20.39
2017-02-13T10:41:20.820Z,20.35
2017-02-13T10:42:20.430Z,20.26
2017-02-13T10:43:20.481Z,20.33
2017-02-13T10:44:20.105Z,20.33
2017-02-13T10:45:21.182Z,20.38
2017-02-13T10:46:20.547Z,20.35
2017-02-13T10:47:20.579Z,20.33
2017-02-13T10:48:20.997Z,20.36
2017-02-13T10:49:20.240Z,20.38
2017-02-13T10:50:21.154Z,20.35
2017-02-13T10:51:21.075Z,20.35
2017-02-13T10:52:20.316Z,20.38
2017-02-13T10:53:20.344Z,20.35
2017-02-13T10:54:20.780Z,20.38
2017-02-13T10:55:20.645Z,20.32
2017-02-13T10:56:21.214Z,20.32
2017-02-13T10:57:20.859Z,20.35
2017-02-13T10:58:21.272Z,20.36
2017-02-13T10:59:20.900Z,20.38
2017-02-13T11:00:20.775Z,20.41
2017-02-13T11:01:21.342Z,20.43
2017-02-13T11:02:20.975Z,20.41
2017-02-13T11:03:21.003Z,20.42
2017-02-13T11:04:20.628Z,20.39
2017-02-13T11:05:21.355Z,20.48
2017-02-13T11:06:21.514Z,20.51
2017-02-13T11:07:20.709Z,20.52
2017-02-13T11:08:21.537Z,20.54
2017-02-13T11:09:21.161Z,20.54
2017-02-13T11:10:20.787Z,20.47
2017-02-13T11:11:21.610Z,20.51
2017-02-13T11:12:21.246Z,20.59
2017-02-13T11:13:21.261Z,20.54
2017-02-13T11:14:21.292Z,20.54
2017-02-13T11:15:21.739Z,20.58
2017-02-13T11:16:21.756Z,20.62
2017-02-13T11:17:20.974Z,20.64
2017-02-13T11:18:21.002Z,20.61
2017-02-13T11:19:21.019Z,20.61
2017-02-13T11:20:21.847Z,20.76
2017-02-13T11:21:21.491Z,20.73
2017-02-13T11:22:21.508Z,20.67
2017-02-13T11:23:21.525Z,20.69
2017-02-13T11:24:21.959Z,20.69
2017-02-13T11:25:21.978Z,20.74
2017-02-13T11:26:22.260Z,20.79
2017-02-13T11:27:21.652Z,20.77
2017-02-13T11:28:21.677Z,20.87
2017-02-13T11:29:22.103Z,20.92
2017-02-13T11:30:22.111Z,20.95
2017-02-13T11:31:22.395Z,20.99
2017-02-13T11:32:21.764Z,20.95
2017-02-13T11:33:22.188Z,21.01
2017-02-13T11:34:21.829Z,21.04
2017-02-13T11:35:22.250Z,21.03
2017-02-13T11:36:21.736Z,21.09
2017-02-13T11:37:21.504Z,21.07
2017-02-13T11:38:21.921Z,21.17
2017-02-13T11:39:22.358Z,21.17
2017-02-13T11:40:21.974Z,21.22
2017-02-13T11:41:22.910Z,21.28
2017-02-13T11:42:22.031Z,21.34
2017-02-13T11:43:22.072Z,21.34
2017-02-13T11:44:22.497Z,21.4
2017-02-13T11:45:22.509Z,21.35
2017-02-13T11:46:22.137Z,21.44
2017-02-13T11:47:21.788Z,21.44
2017-02-13T11:48:21.804Z,21.5
2017-02-13T11:49:22.627Z,21.52
2017-02-13T11:50:22.654Z,21.58
2017-02-13T11:51:22.285Z,21.62
2017-02-13T11:52:21.911Z,21.56
2017-02-13T11:53:22.339Z,21.69
2017-02-13T11:54:21.968Z,21.62
2017-02-13T11:55:22.428Z,21.67
2017-02-13T11:56:22.428Z,21.67
2017-02-13T11:57:22.047Z,21.72
2017-02-13T11:58:22.871Z,21.68
2017-02-13T11:59:22.496Z,21.68
2017-02-13T12:00:22.934Z,21.69
2017-02-13T12:01:22.574Z,21.72
2017-02-13T12:02:22.830Z,21.72
2017-02-13T12:03:22.603Z,21.71
2017-02-13T12:04:22.628Z,21.77
2017-02-13T12:05:22.664Z,21.68
2017-02-13T12:06:22.677Z,21.72
2017-02-13T12:07:23.381Z,21.67
2017-02-13T12:08:22.351Z,21.68
2017-02-13T12:09:22.773Z,21.72
2017-02-13T12:10:23.208Z,21.71
2017-02-13T12:11:22.456Z,21.65
2017-02-13T12:12:23.493Z,21.58
2017-02-13T12:13:23.277Z,21.53
2017-02-13T12:14:23.299Z,21.67
2017-02-13T12:15:22.536Z,21.69
2017-02-13T12:16:22.951Z,21.62
2017-02-13T12:17:22.842Z,21.58
2017-02-13T12:18:23.005Z,21.61
2017-02-13T12:19:23.430Z,21.61
2017-02-13T12:20:23.076Z,21.47
2017-02-13T12:21:22.708Z,21.56
2017-02-13T12:22:23.376Z,21.53
2017-02-13T12:23:22.770Z,21.58
2017-02-13T12:24:23.570Z,21.56
2017-02-13T12:25:22.803Z,21.58
2017-02-13T12:26:23.616Z,21.62
2017-02-13T12:27:23.504Z,21.58
2017-02-13T12:28:23.284Z,21.65
2017-02-13T12:29:23.710Z,21.59
2017-02-13T12:30:23.776Z,21.64
2017-02-13T12:31:23.375Z,21.72
2017-02-13T12:32:24.039Z,21.69
2017-02-13T12:33:23.420Z,21.74
2017-02-13T12:34:23.052Z,21.71
2017-02-13T12:35:23.473Z,21.86
2017-02-13T12:36:23.905Z,21.88
2017-02-13T12:37:23.803Z,21.77
2017-02-13T12:38:23.560Z,21.88
2017-02-13T12:39:23.987Z,22.02
2017-02-13T12:40:24.001Z,22.02
2017-02-13T12:41:24.045Z,22.17
2017-02-13T12:42:24.306Z,22.12
2017-02-13T12:43:23.699Z,22.21
2017-02-13T12:45:36.450Z,22.37
2017-02-13T12:45:46.805Z,22.37
2017-02-13T12:46:47.233Z,22.51
2017-02-13T12:47:47.527Z,22.57
2017-02-13T12:48:47.284Z,22.64
2017-02-13T12:49:46.520Z,22.6
2017-02-13T12:50:46.960Z,22.79
2017-02-13T12:51:46.990Z,22.68
2017-02-13T12:52:47.505Z,22.83
2017-02-13T12:53:47.423Z,22.9